Terminal Aerodrome Forecast
Issued by NWS

Home | Current Version | Previous Version | Text Only | Print | Product List | Glossary On
Versions: 1 2 3 4 5 6 7 8 9 10 11 12 13 14 15 16 17 18 19 20 21 22 23 24 25 26 27
000
FTUS43 KDLH 232300
TAFHYR
TAF
KHYR 232333Z 2400/2424 23004KT P6SM OVC029
     FM240600 VRB02KT P6SM OVC022
     FM241100 30006KT P6SM OVC015
     FM242200 VRB03KT P6SM OVC010=

USA.gov is the U.S. government's official web portal to all federal, state and local government web resources and services.